Anniston, Missouri
Current Conditions -  °F | °C
As of 4:55 AM on Friday 28 Nov 2014 (Local Time) from KCIR Reporting Station
Clear Clear  
Wind Chill: 29°   Ceiling: Unl
Heat Index: 29°   Visibility: 7mi
Dew Point: 25°   Wind: 3mph
Humidity: 83%   Direction: 120°ESE
Pressure: 30.41"   Gusts: NA
Location:  36.83°N, 89.33°W
Report Text: KCIR 281055Z AUTO 12003KT 7SM CLR M01/M04 A3041 RMK AO2 T10141040
Loading
Personal Weather Stations






























Interactive Weather Map New forecast layout! Learn more

10-Day Weather Forecast

Advertisements
Track Severe Weather on mobile